EZY1480 EGPH-EGCC
Flight info
| Callsign | EZY1480 |
|---|---|
| Flight time | N/A |
| Altitude | 23000 |
| Route | GOSAM P600 FENIK L612 LAKEY |
| Aircraft | A20N/M-SDE2E3FGHIRWXY/LB1 |
Departure
| Time | 2026-05-04 15:13 |
|---|---|
| Airport | Edinburgh Airport (EGPH) |
Arrival
| Time | N/A |
|---|---|
| Airport | Manchester Airport (EGCC) |
| Time | Latitude | Longitude | Altitude | Speed | Heading |
|---|---|---|---|---|---|
| 2026-05-04 15:03 | 55.94941 | -3.35977 | 108 ft | 0 kts | 255° |
| 2026-05-04 15:07 | 55.94942 | -3.35975 | 108 ft | 1 kts | 255° |
| 2026-05-04 15:07 | 55.94946 | -3.35950 | 108 ft | 2 kts | 255° |
| 2026-05-04 15:08 | 55.94949 | -3.35924 | 108 ft | 2 kts | 269° |
| 2026-05-04 15:08 | 55.94948 | -3.35898 | 108 ft | 2 kts | 282° |
| 2026-05-04 15:08 | 55.94943 | -3.35873 | 108 ft | 2 kts | 297° |
| 2026-05-04 15:08 | 55.94935 | -3.35849 | 108 ft | 2 kts | 312° |
| 2026-05-04 15:09 | 55.94929 | -3.35838 | 108 ft | 1 kts | 320° |
| 2026-05-04 15:09 | 55.94925 | -3.35833 | 108 ft | 0 kts | 321° |
| 2026-05-04 15:10 | 55.94945 | -3.35853 | 108 ft | 5 kts | 341° |
| 2026-05-04 15:11 | 55.94997 | -3.35845 | 108 ft | 9 kts | 21° |
| 2026-05-04 15:11 | 55.95073 | -3.35801 | 108 ft | 13 kts | 352° |
| 2026-05-04 15:11 | 55.95143 | -3.35919 | 107 ft | 15 kts | 323° |
| 2026-05-04 15:11 | 55.95244 | -3.35942 | 107 ft | 17 kts | 45° |
| 2026-05-04 15:12 | 55.95315 | -3.35744 | 107 ft | 20 kts | 59° |
| 2026-05-04 15:12 | 55.95393 | -3.35520 | 107 ft | 23 kts | 59° |
| 2026-05-04 15:12 | 55.95487 | -3.35430 | 107 ft | 15 kts | 339° |
| 2026-05-04 15:12 | 55.95566 | -3.35563 | 106 ft | 18 kts | 261° |
| 2026-05-04 15:13 | 55.95432 | -3.35976 | 107 ft | 73 kts | 239° |
| 2026-05-04 15:13 | 55.95043 | -3.37121 | 108 ft | 139 kts | 240° |
| 2026-05-04 15:13 | 55.94513 | -3.38733 | 562 ft | 153 kts | 243° |
| 2026-05-04 15:13 | 55.93974 | -3.40343 | 1264 ft | 156 kts | 240° |
| 2026-05-04 15:14 | 55.93408 | -3.41937 | 2018 ft | 157 kts | 241° |
| 2026-05-04 15:14 | 55.92810 | -3.43645 | 2549 ft | 171 kts | 242° |
| 2026-05-04 15:14 | 55.92150 | -3.45546 | 3010 ft | 188 kts | 242° |
| 2026-05-04 15:14 | 55.91433 | -3.47629 | 3408 ft | 211 kts | 241° |
| 2026-05-04 15:15 | 55.90707 | -3.50034 | 3948 ft | 228 kts | 250° |
| 2026-05-04 15:15 | 55.90255 | -3.52785 | 4494 ft | 244 kts | 261° |
| 2026-05-04 15:15 | 55.89935 | -3.55858 | 5161 ft | 257 kts | 262° |
| 2026-05-04 15:16 | 55.89322 | -3.62180 | 5953 ft | 261 kts | 262° |
| 2026-05-04 15:16 | 55.89009 | -3.65358 | 5965 ft | 260 kts | 261° |
| 2026-05-04 15:16 | 55.88372 | -3.71716 | 5974 ft | 260 kts | 261° |
| 2026-05-04 15:17 | 55.88051 | -3.74895 | 5964 ft | 260 kts | 261° |
| 2026-05-04 15:17 | 55.87606 | -3.81282 | 5967 ft | 260 kts | 273° |
| 2026-05-04 15:17 | 55.87733 | -3.84498 | 5966 ft | 259 kts | 276° |
| 2026-05-04 15:18 | 55.87896 | -3.87689 | 5965 ft | 259 kts | 276° |
| 2026-05-04 15:18 | 55.88047 | -3.90863 | 5963 ft | 259 kts | 276° |
| 2026-05-04 15:18 | 55.88187 | -3.94089 | 5970 ft | 259 kts | 275° |
| 2026-05-04 15:19 | 55.88130 | -4.00459 | 5958 ft | 262 kts | 251° |
| 2026-05-04 15:19 | 55.87145 | -4.03176 | 5978 ft | 266 kts | 231° |
| 2026-05-04 15:19 | 55.84683 | -4.08108 | 5977 ft | 266 kts | 233° |
| 2026-05-04 15:20 | 55.83763 | -4.10879 | 5970 ft | 262 kts | 251° |
| 2026-05-04 15:20 | 55.83034 | -4.13838 | 5972 ft | 264 kts | 240° |
| 2026-05-04 15:20 | 55.81758 | -4.16212 | 5986 ft | 269 kts | 220° |
| 2026-05-04 15:20 | 55.80253 | -4.18212 | 5986 ft | 269 kts | 219° |
| 2026-05-04 15:21 | 55.78733 | -4.20166 | 5988 ft | 269 kts | 218° |
| 2026-05-04 15:21 | 55.77197 | -4.22110 | 6239 ft | 278 kts | 218° |
| 2026-05-04 15:21 | 55.74044 | -4.26055 | 8302 ft | 278 kts | 218° |
| 2026-05-04 15:22 | 55.72355 | -4.27664 | 9184 ft | 287 kts | 198° |
| 2026-05-04 15:22 | 55.70351 | -4.27811 | 10053 ft | 298 kts | 171° |
| 2026-05-04 15:22 | 55.66498 | -4.24467 | 11264 ft | 329 kts | 151° |
| 2026-05-04 15:23 | 55.64449 | -4.22364 | 11703 ft | 347 kts | 151° |
| 2026-05-04 15:23 | 55.62312 | -4.20208 | 12093 ft | 366 kts | 152° |
| 2026-05-04 15:23 | 55.60057 | -4.17967 | 12447 ft | 383 kts | 152° |
| 2026-05-04 15:23 | 55.57692 | -4.15639 | 12980 ft | 394 kts | 152° |
| 2026-05-04 15:24 | 55.52851 | -4.10910 | 14463 ft | 403 kts | 152° |
| 2026-05-04 15:24 | 55.47884 | -4.06074 | 15858 ft | 412 kts | 152° |
| 2026-05-04 15:25 | 55.45388 | -4.03655 | 16508 ft | 416 kts | 152° |
| 2026-05-04 15:25 | 55.42850 | -4.01197 | 17185 ft | 420 kts | 152° |
| 2026-05-04 15:25 | 55.40286 | -3.98714 | 17798 ft | 424 kts | 152° |
| 2026-05-04 15:26 | 55.35068 | -3.93668 | 19041 ft | 431 kts | 152° |
| 2026-05-04 15:26 | 55.32462 | -3.91153 | 19655 ft | 434 kts | 151° |
| 2026-05-04 15:26 | 55.27152 | -3.86044 | 20868 ft | 439 kts | 151° |
| 2026-05-04 15:27 | 55.24447 | -3.83448 | 21489 ft | 441 kts | 151° |
| 2026-05-04 15:27 | 55.19058 | -3.78285 | 22616 ft | 446 kts | 151° |
| 2026-05-04 15:28 | 55.13636 | -3.73110 | 23006 ft | 446 kts | 151° |
| 2026-05-04 15:28 | 55.10924 | -3.70526 | 23005 ft | 445 kts | 151° |
| 2026-05-04 15:28 | 55.05502 | -3.65370 | 23003 ft | 444 kts | 151° |
| 2026-05-04 15:29 | 55.02766 | -3.62779 | 23011 ft | 442 kts | 151° |
| 2026-05-04 15:30 | 54.91951 | -3.52575 | 23014 ft | 442 kts | 150° |
| 2026-05-04 15:30 | 54.83810 | -3.44926 | 23012 ft | 443 kts | 150° |
| 2026-05-04 15:31 | 54.78350 | -3.39817 | 23027 ft | 443 kts | 150° |
| 2026-05-04 15:31 | 54.75648 | -3.37295 | 23025 ft | 443 kts | 150° |
| 2026-05-04 15:32 | 54.67320 | -3.30415 | 23022 ft | 443 kts | 156° |
| 2026-05-04 15:32 | 54.61684 | -3.26182 | 23025 ft | 444 kts | 156° |
| 2026-05-04 15:33 | 54.56036 | -3.21948 | 23020 ft | 444 kts | 156° |
| 2026-05-04 15:34 | 54.47584 | -3.15645 | 23014 ft | 443 kts | 156° |
| 2026-05-04 15:34 | 54.44741 | -3.13532 | 23013 ft | 443 kts | 156° |
| 2026-05-04 15:34 | 54.39242 | -3.09457 | 23015 ft | 415 kts | 156° |
| 2026-05-04 15:35 | 54.34174 | -3.05710 | 23021 ft | 380 kts | 155° |
| 2026-05-04 15:35 | 54.31807 | -3.03964 | 23028 ft | 364 kts | 155° |
| 2026-05-04 15:35 | 54.29547 | -3.02300 | 23027 ft | 349 kts | 155° |
| 2026-05-04 15:36 | 54.25248 | -2.99097 | 23040 ft | 331 kts | 153° |
| 2026-05-04 15:36 | 54.23217 | -2.97293 | 23039 ft | 330 kts | 148° |
| 2026-05-04 15:36 | 54.21264 | -2.95218 | 23010 ft | 327 kts | 145° |
| 2026-05-04 15:37 | 54.19377 | -2.93094 | 22719 ft | 324 kts | 145° |
| 2026-05-04 15:37 | 54.17524 | -2.90999 | 22168 ft | 321 kts | 145° |
| 2026-05-04 15:37 | 54.15657 | -2.88892 | 21384 ft | 322 kts | 145° |
| 2026-05-04 15:37 | 54.13753 | -2.86738 | 19598 ft | 348 kts | 145° |
| 2026-05-04 15:38 | 54.11743 | -2.84420 | 18074 ft | 363 kts | 145° |
| 2026-05-04 15:38 | 54.09672 | -2.81992 | 16587 ft | 381 kts | 145° |
| 2026-05-04 15:38 | 54.07480 | -2.79390 | 15388 ft | 391 kts | 144° |
| 2026-05-04 15:38 | 54.05267 | -2.76733 | 14690 ft | 383 kts | 144° |
| 2026-05-04 15:39 | 54.03115 | -2.74117 | 14917 ft | 383 kts | 144° |
| 2026-05-04 15:39 | 54.00946 | -2.71456 | 15144 ft | 392 kts | 144° |
| 2026-05-04 15:39 | 53.96523 | -2.65976 | 15323 ft | 397 kts | 144° |
| 2026-05-04 15:40 | 53.94306 | -2.63232 | 15100 ft | 394 kts | 144° |
| 2026-05-04 15:40 | 53.92069 | -2.60501 | 15039 ft | 394 kts | 147° |
| 2026-05-04 15:40 | 53.89654 | -2.58439 | 15044 ft | 394 kts | 157° |
| 2026-05-04 15:40 | 53.87162 | -2.56535 | 15029 ft | 385 kts | 153° |
| 2026-05-04 15:41 | 53.84916 | -2.54501 | 14906 ft | 357 kts | 150° |
| 2026-05-04 15:41 | 53.82831 | -2.52370 | 14232 ft | 345 kts | 148° |
| 2026-05-04 15:41 | 53.80848 | -2.50226 | 13535 ft | 334 kts | 147° |
| 2026-05-04 15:41 | 53.78952 | -2.48142 | 13123 ft | 314 kts | 147° |
| 2026-05-04 15:42 | 53.77216 | -2.46227 | 13032 ft | 288 kts | 147° |
| 2026-05-04 15:42 | 53.75575 | -2.44422 | 12967 ft | 274 kts | 147° |
| 2026-05-04 15:42 | 53.74011 | -2.42705 | 12552 ft | 270 kts | 147° |
| 2026-05-04 15:42 | 53.72443 | -2.40989 | 12158 ft | 269 kts | 147° |
| 2026-05-04 15:43 | 53.70865 | -2.39265 | 11810 ft | 267 kts | 147° |
| 2026-05-04 15:43 | 53.69329 | -2.37588 | 11475 ft | 265 kts | 147° |
| 2026-05-04 15:43 | 53.67791 | -2.35896 | 11139 ft | 264 kts | 144° |
| 2026-05-04 15:43 | 53.66540 | -2.33664 | 11034 ft | 264 kts | 122° |
| 2026-05-04 15:44 | 53.65657 | -2.30956 | 11039 ft | 265 kts | 116° |
| 2026-05-04 15:44 | 53.64844 | -2.28157 | 11028 ft | 266 kts | 116° |
| 2026-05-04 15:44 | 53.64050 | -2.25358 | 11018 ft | 266 kts | 115° |
| 2026-05-04 15:44 | 53.63255 | -2.22544 | 11017 ft | 265 kts | 115° |
| 2026-05-04 15:45 | 53.62466 | -2.19747 | 11016 ft | 266 kts | 115° |
| 2026-05-04 15:45 | 53.61586 | -2.17041 | 11004 ft | 266 kts | 130° |
| 2026-05-04 15:45 | 53.60161 | -2.15167 | 11006 ft | 264 kts | 159° |
| 2026-05-04 15:45 | 53.58376 | -2.14650 | 11014 ft | 262 kts | 188° |
| 2026-05-04 15:46 | 53.56639 | -2.15493 | 11033 ft | 260 kts | 202° |
| 2026-05-04 15:46 | 53.54890 | -2.16215 | 10971 ft | 263 kts | 181° |
| 2026-05-04 15:46 | 53.53107 | -2.15590 | 10509 ft | 270 kts | 156° |